createdAt,value
2023-04-26T12:07:34.532Z,102109.03
2023-04-26T12:10:14.037Z,102099.53
2023-04-26T12:12:45.273Z,102104.72
2023-04-26T12:15:13.904Z,102098.47
2023-04-26T12:17:52.487Z,102102.50
2023-04-26T12:20:19.972Z,102098.84
2023-04-26T12:23:02.805Z,102107.97
2023-04-26T12:25:30.283Z,102113.91
2023-04-26T12:27:56.888Z,102113.69
2023-04-26T12:30:23.619Z,102110.81
2023-04-26T12:32:50.410Z,102111.69
2023-04-26T12:35:16.938Z,102114.53
2023-04-26T12:37:43.397Z,102117.75
2023-04-26T12:40:10.765Z,102115.94
2023-04-26T12:42:37.352Z,102118.78
2023-04-26T12:45:03.982Z,102117.06
2023-04-26T12:47:31.812Z,102117.44
2023-04-26T12:50:00.999Z,102115.53
2023-04-26T12:52:28.227Z,102115.56
2023-04-26T12:54:54.624Z,102108.47
2023-04-26T12:57:21.837Z,102114.22
2023-04-26T12:59:48.304Z,102106.94
2023-04-26T13:02:14.820Z,102105.66
2023-04-26T13:04:41.998Z,102110.59
2023-04-26T13:07:08.905Z,102107.31
2023-04-26T13:09:35.244Z,102110.97
2023-04-26T13:12:01.651Z,102105.41
2023-04-26T13:14:28.034Z,102102.75
2023-04-26T13:16:54.485Z,102107.88
2023-04-26T13:19:20.940Z,102109.09
2023-04-26T13:21:47.365Z,102102.31
2023-04-26T13:24:13.793Z,102107.81
2023-04-26T13:26:40.183Z,102100.81
2023-04-26T13:29:06.624Z,102115.69
2023-04-26T13:31:33.004Z,102117.94
2023-04-26T13:33:59.480Z,102118.69
2023-04-26T13:36:26.165Z,102115.81
2023-04-26T13:38:52.581Z,102115.19
2023-04-26T13:41:19.046Z,102120.81
2023-04-26T13:43:45.581Z,102129.22
2023-04-26T13:46:12.105Z,102123.84
2023-04-26T13:48:38.439Z,102123.03
2023-04-26T13:51:06.962Z,102129.81
2023-04-26T13:53:33.843Z,102123.44
2023-04-26T13:56:00.263Z,102127.44
2023-04-26T13:58:26.633Z,102124.31
2023-04-26T14:00:53.018Z,102123.81
2023-04-26T14:03:19.597Z,102124.91
2023-04-26T14:05:46.211Z,102122.41
2023-04-26T14:08:12.741Z,102114.94
2023-04-26T14:10:40.276Z,102113.22
2023-04-26T14:13:06.808Z,102116.91
2023-04-26T14:15:33.130Z,102111.38
2023-04-26T14:17:59.558Z,102112.47
2023-04-26T14:20:26.108Z,102109.59
2023-04-26T14:22:52.521Z,102108.84
2023-04-26T14:25:19.054Z,102105.44
2023-04-26T14:27:45.373Z,102105.72
2023-04-26T14:30:12.069Z,102102.47
2023-04-26T14:32:38.533Z,102106.91
2023-04-26T14:35:05.451Z,102100.75
2023-04-26T14:37:31.801Z,102091.44
2023-04-26T14:39:58.243Z,102105.81
2023-04-26T14:42:24.679Z,102101.72
2023-04-26T14:44:51.269Z,102101.59
2023-04-26T14:47:17.768Z,102101.50
2023-04-26T14:49:44.191Z,102095.03
2023-04-26T14:52:10.672Z,102104.06
2023-04-26T14:54:38.836Z,102095.88
2023-04-26T14:57:05.207Z,102097.34
2023-04-26T14:59:31.599Z,102096.94
2023-04-26T15:01:58.074Z,102096.84
2023-04-26T15:04:24.882Z,102100.88
2023-04-26T15:06:51.619Z,102089.19
2023-04-26T15:09:18.316Z,102096.03
2023-04-26T15:11:44.669Z,102098.50
2023-04-26T15:14:11.098Z,102103.19
2023-04-26T15:16:37.618Z,102098.53
2023-04-26T15:19:04.059Z,102097.03
2023-04-26T15:21:31.481Z,102101.50
2023-04-26T15:23:57.954Z,102096.09
2023-04-26T15:26:24.437Z,102107.88
2023-04-26T15:28:51.207Z,102105.06
2023-04-26T15:31:17.566Z,102096.50
2023-04-26T15:33:44.014Z,102092.81
2023-04-26T15:36:10.421Z,102101.03
2023-04-26T15:38:36.905Z,102101.63
2023-04-26T15:41:03.552Z,102101.63
2023-04-26T15:43:29.996Z,102096.59
2023-04-26T15:45:56.620Z,102101.41
2023-04-26T15:48:23.078Z,102104.78
2023-04-26T15:50:50.604Z,102099.09
2023-04-26T15:53:17.335Z,102100.28
2023-04-26T15:55:43.972Z,102095.44
2023-04-26T15:58:10.317Z,102103.78
2023-04-26T16:00:37.091Z,102098.59
2023-04-26T16:03:03.678Z,102099.94
2023-04-26T16:05:31.682Z,102097.31
2023-04-26T16:07:59.451Z,102101.03
2023-04-26T16:10:25.956Z,102088.69
2023-04-26T16:12:52.355Z,102110.09
2023-04-26T16:15:18.752Z,102101.22
2023-04-26T16:17:45.185Z,102102.72
2023-04-26T16:20:11.740Z,102103.66
2023-04-26T16:22:38.150Z,102104.59
2023-04-26T16:25:06.761Z,102100.41
2023-04-26T16:27:33.279Z,102102.06
2023-04-26T16:29:59.683Z,102105.38
2023-04-26T16:32:26.378Z,102105.19
2023-04-26T16:34:53.156Z,102105.38
2023-04-26T16:37:19.868Z,102104.22
2023-04-26T16:39:46.396Z,102109.97
2023-04-26T16:42:12.774Z,102107.22
2023-04-26T16:44:40.344Z,102106.41
2023-04-26T16:47:06.799Z,102106.78
2023-04-26T16:49:33.215Z,102098.81
2023-04-26T16:51:59.627Z,102114.94
2023-04-26T16:54:26.422Z,102102.38
2023-04-26T16:56:53.109Z,102104.91
2023-04-26T16:59:19.877Z,102103.72
2023-04-26T17:01:47.320Z,102104.41
2023-04-26T17:04:14.399Z,102106.28
2023-04-26T17:06:41.199Z,102099.16
2023-04-26T17:09:08.709Z,102102.09
2023-04-26T17:11:37.267Z,102099.28
2023-04-26T17:14:04.421Z,102107.28
2023-04-26T17:16:31.133Z,102110.09
2023-04-26T17:18:58.330Z,102103.97
2023-04-26T17:21:24.934Z,102114.03
2023-04-26T17:23:51.322Z,102115.00
2023-04-26T17:26:18.017Z,102112.75
2023-04-26T17:28:44.422Z,102108.31
2023-04-26T17:31:10.812Z,102112.88
2023-04-26T17:33:37.219Z,102110.19
2023-04-26T17:36:03.889Z,102121.22
2023-04-26T17:38:30.456Z,102121.28
2023-04-26T17:40:56.953Z,102120.47
2023-04-26T17:43:23.537Z,102121.84
2023-04-26T17:45:49.996Z,102122.25
2023-04-26T17:48:17.005Z,102126.78
2023-04-26T17:50:43.732Z,102129.53
2023-04-26T17:53:10.267Z,102127.66
2023-04-26T17:55:37.361Z,102135.94
2023-04-26T17:58:03.847Z,102134.38
2023-04-26T18:00:30.293Z,102138.13
2023-04-26T18:02:57.992Z,102137.34
2023-04-26T18:05:25.086Z,102141.13
2023-04-26T18:07:51.805Z,102134.94
2023-04-26T18:10:18.294Z,102143.16
2023-04-26T18:12:44.652Z,102144.22
2023-04-26T18:15:11.163Z,102146.16
2023-04-26T18:17:37.538Z,102151.63
2023-04-26T18:20:04.823Z,102151.84
2023-04-26T18:22:31.175Z,102149.38
2023-04-26T18:24:57.662Z,102148.75
2023-04-26T18:27:24.243Z,102154.06
2023-04-26T18:29:50.587Z,102160.38
2023-04-26T18:32:17.076Z,102163.16
2023-04-26T18:34:44.126Z,102163.28
2023-04-26T18:37:10.582Z,102159.00
2023-04-26T18:39:36.996Z,102166.19
2023-04-26T18:42:03.808Z,102169.84
2023-04-26T18:44:30.397Z,102164.69
2023-04-26T18:46:56.802Z,102173.81
2023-04-26T18:49:24.349Z,102170.41
2023-04-26T18:51:50.718Z,102171.28
2023-04-26T18:54:17.262Z,102173.97
2023-04-26T18:56:43.970Z,102172.31
2023-04-26T18:59:10.768Z,102172.38
2023-04-26T19:01:37.230Z,102175.25
2023-04-26T19:04:03.835Z,102175.34
2023-04-26T19:06:31.455Z,102176.38
2023-04-26T19:08:58.791Z,102175.59
2023-04-26T19:11:25.159Z,102176.63
2023-04-26T19:13:51.667Z,102175.84
2023-04-26T19:16:18.179Z,102175.69
2023-04-26T19:18:44.858Z,102177.69
2023-04-26T19:21:11.358Z,102185.97
2023-04-26T19:23:37.741Z,102186.84
2023-04-26T19:26:08.690Z,102185.06
2023-04-26T19:28:35.740Z,102191.50
2023-04-26T19:31:02.143Z,102192.50
2023-04-26T19:33:28.656Z,102198.88
2023-04-26T19:35:56.500Z,102200.88
2023-04-26T19:38:23.974Z,102203.75
2023-04-26T19:40:53.907Z,102199.56
2023-04-26T19:43:20.643Z,102202.22
2023-04-26T19:45:47.150Z,102206.88
2023-04-26T19:48:13.683Z,102203.41
2023-04-26T19:50:41.605Z,102203.59
2023-04-26T19:53:13.054Z,102209.13
2023-04-26T19:55:41.536Z,102201.34
2023-04-26T19:58:08.380Z,102207.78
2023-04-26T20:00:39.776Z,102211.50
2023-04-26T20:03:06.560Z,102216.94
2023-04-26T20:05:33.621Z,102217.16
2023-04-26T20:08:00.650Z,102214.69
2023-04-26T20:10:30.598Z,102211.25
2023-04-26T20:12:56.940Z,102211.41
2023-04-26T20:15:23.386Z,102211.44
2023-04-26T20:17:49.766Z,102216.28
2023-04-26T20:20:16.177Z,102216.41
2023-04-26T20:22:42.641Z,102221.00
2023-04-26T20:25:09.261Z,102223.75
2023-04-26T20:27:35.806Z,102223.94
2023-04-26T20:30:02.916Z,102223.16
2023-04-26T20:32:29.387Z,102218.81
2023-04-26T20:34:56.205Z,102216.28
2023-04-26T20:37:22.653Z,102226.19
2023-04-26T20:39:49.468Z,102230.81
2023-04-26T20:42:16.067Z,102234.53
2023-04-26T20:44:42.843Z,102237.28
2023-04-26T20:47:09.261Z,102234.78
2023-04-26T20:49:35.868Z,102233.00
2023-04-26T20:52:02.189Z,102230.34
2023-04-26T20:54:28.590Z,102232.19
2023-04-26T20:56:54.946Z,102234.00
2023-04-26T20:59:21.332Z,102232.38
2023-04-26T21:01:47.672Z,102234.22
2023-04-26T21:04:14.302Z,102228.28
2023-04-26T21:06:40.834Z,102230.19
2023-04-26T21:09:07.382Z,102229.31
2023-04-26T21:11:33.939Z,102231.25
2023-04-26T21:14:00.943Z,102223.41
2023-04-26T21:16:27.479Z,102230.63
2023-04-26T21:18:53.944Z,102228.91
2023-04-26T21:21:20.340Z,102234.25
2023-04-26T21:23:46.917Z,102229.19
2023-04-26T21:26:13.444Z,102232.88
2023-04-26T21:28:39.811Z,102238.22
2023-04-26T21:31:07.024Z,102241.75
2023-04-26T21:33:34.209Z,102245.41
2023-04-26T21:36:00.857Z,102234.84
2023-04-26T21:38:27.452Z,102237.56
2023-04-26T21:40:53.814Z,102247.47
2023-04-26T21:43:24.744Z,102234.19
2023-04-26T21:45:52.324Z,102239.56
2023-04-26T21:48:18.700Z,102242.44
2023-04-26T21:50:48.837Z,102251.53
2023-04-26T21:53:15.925Z,102248.09
2023-04-26T21:55:42.274Z,102245.59
2023-04-26T21:58:08.585Z,102243.81
2023-04-26T22:00:35.131Z,102244.72
2023-04-26T22:03:01.706Z,102238.59
2023-04-26T22:05:29.201Z,102246.75
2023-04-26T22:07:55.851Z,102245.00
2023-04-26T22:10:22.266Z,102243.44
2023-04-26T22:12:48.585Z,102248.81
2023-04-26T22:15:15.019Z,102248.03
2023-04-26T22:17:41.476Z,102245.38
2023-04-26T22:20:08.059Z,102259.41
2023-04-26T22:22:34.474Z,102258.50
2023-04-26T22:25:00.912Z,102264.75
2023-04-26T22:27:27.488Z,102254.13
2023-04-26T22:29:53.825Z,102262.16
2023-04-26T22:32:20.359Z,102256.81
2023-04-26T22:34:46.760Z,102257.72
2023-04-26T22:37:20.314Z,102255.97
2023-04-26T22:39:47.504Z,102252.47
2023-04-26T22:42:13.776Z,102265.78
2023-04-26T22:44:40.105Z,102261.41
2023-04-26T22:47:06.548Z,102262.47
2023-04-26T22:49:32.930Z,102264.31
2023-04-26T22:52:07.930Z,102271.41
2023-04-26T22:54:38.436Z,102275.00
2023-04-26T22:57:05.535Z,102274.22
2023-04-26T22:59:34.139Z,102276.06
2023-04-26T23:02:01.468Z,102269.91
2023-04-26T23:04:28.051Z,102273.53
2023-04-26T23:06:54.455Z,102277.94
2023-04-26T23:09:20.931Z,102272.59
2023-04-26T23:11:47.526Z,102271.72
2023-04-26T23:14:15.694Z,102282.41
2023-04-26T23:16:42.372Z,102285.97
2023-04-26T23:19:09.539Z,102283.31
2023-04-26T23:21:35.998Z,102281.69
2023-04-26T23:24:02.381Z,102283.69
2023-04-26T23:26:28.795Z,102282.78
2023-04-26T23:28:55.125Z,102280.91
2023-04-26T23:31:21.603Z,102291.47
2023-04-26T23:33:48.182Z,102297.66
2023-04-26T23:36:14.620Z,102297.63
2023-04-26T23:38:41.273Z,102290.59
2023-04-26T23:41:07.714Z,102292.34
2023-04-26T23:43:34.102Z,102284.47
2023-04-26T23:46:00.573Z,102289.81
2023-04-26T23:48:27.319Z,102289.88
2023-04-26T23:50:53.758Z,102298.00
2023-04-26T23:53:20.138Z,102306.81
2023-04-26T23:55:46.789Z,102302.34
2023-04-26T23:58:13.125Z,102303.22
